Mekhanik Pogodin — UBFH6 — position and weather

sailwx.info

Track history (hours):
 
Tides and Currents Weather Stations Pressure Air Temp Water Temp Dewpoint Dewpoint Depression Visibility Wind Speed Wind Dir Waves Ship Positions

Mekhanik Pogodin

Last reported at 2017-Aug-19 20:50 UTC. Time now 2017-Aug-22 16:54 UTC.
Position N 45°43' E 036°55'.

Length 141 m; draft 2.9 m.

Type: Ship (hazmat cat A). MMSI: 273354720.

Date/timePositionNaut miles runAvg speedWind from/ knotsBaromVisibWave heightAir tempDewpointWater temp
2017-Aug-19 20:50N 45°43' E 036°55'4 8.8
2017-Aug-19 20:25N 45°40' E 036°52'11 8.9
2017-Aug-19 19:12N 45°31' E 036°44'2 9.0
2017-Aug-19 19:00N 45°29' E 036°43'5 9.0
2017-Aug-19 18:30N 45°25' E 036°41'4 8.2
2017-Aug-19 18:00N 45°21' E 036°39'4 7.7
2017-Aug-19 17:30N 45°19' E 036°34'5 8.0
2017-Aug-19 16:55N 45°17' E 036°29'4 9.0
2017-Aug-19 16:30N 45°13' E 036°28'4 8.3
2017-Aug-19 15:57N 45°09' E 036°32'2 4.6
2017-Aug-19 15:29N 45°09' E 036°35'0 0.0
2017-Aug-19 14:55N 45°09' E 036°35'0 0.0
2017-Aug-19 13:55N 45°09' E 036°35'0 0.1
2017-Aug-19 13:28N 45°09' E 036°35'0 0.0
2017-Aug-19 12:55N 45°09' E 036°35'0 0.0
2017-Aug-19 12:28N 45°09' E 036°35'0 0.0
2017-Aug-19 11:58N 45°09' E 036°35'0 0.0
2017-Aug-18 15:52N 45°09' E 036°35'0 0.0
2017-Aug-18 15:25N 45°09' E 036°35'0 0.0
2017-Aug-18 14:58N 45°09' E 036°35'0 0.0
2017-Aug-18 13:58N 45°09' E 036°35'0 0.0
2017-Aug-18 13:25N 45°09' E 036°35'0 0.0
2017-Aug-17 22:25N 45°09' E 036°35'0 0.0
2017-Aug-17 21:25N 45°08' E 036°35'0 0.0
2017-Aug-17 19:01N 45°09' E 036°35'0 0.0
2017-Aug-17 16:25N 45°09' E 036°35'0 0.0
2017-Aug-17 15:58N 45°09' E 036°35'0 0.0
2017-Aug-17 15:22N 45°08' E 036°35'0 0.1
2017-Aug-17 14:55N 45°08' E 036°35'0 0.1
2017-Aug-17 14:28N 45°09' E 036°35'0 0.0
2017-Aug-17 12:46N 45°09' E 036°35'0 0.0
2017-Aug-17 12:25N 45°09' E 036°35'0 0.0
2017-Aug-17 05:49N 45°09' E 036°35'0 0.0
2017-Aug-17 01:46N 45°08' E 036°35'0 0.0
2017-Aug-16 21:25N 45°09' E 036°35'0 0.0
2017-Aug-16 19:34N 45°08' E 036°35'0 0.1
2017-Aug-16 19:28N 45°08' E 036°35'0 0.0
2017-Aug-16 18:58N 45°08' E 036°35'0 0.0
2017-Aug-16 18:13N 45°08' E 036°35'0 0.0
2017-Aug-16 17:58N 45°08' E 036°35'0 0.0
2017-Aug-16 17:28N 45°08' E 036°35'0 0.0
2017-Aug-16 16:46N 45°08' E 036°35'0 0.0
2017-Aug-16 16:25N 45°08' E 036°35'0 0.0
2017-Aug-16 15:55N 45°08' E 036°35'0 0.0
2017-Aug-16 15:28N 45°08' E 036°35'0 0.0
2017-Aug-16 14:58N 45°08' E 036°35'0 0.0
2017-Aug-16 14:16N 45°08' E 036°35'0 0.0
2017-Aug-16 13:46N 45°08' E 036°35'0 0.0
2017-Aug-16 13:19N 45°08' E 036°35'0 0.0
2017-Aug-16 12:25N 45°08' E 036°35'0 0.0
2017-Aug-16 11:58N 45°08' E 036°35'0 0.0
2017-Aug-16 11:28N 45°08' E 036°35'0 0.0
2017-Aug-16 10:58N 45°08' E 036°35'0 0.0
2017-Aug-15 21:58N 45°09' E 036°35'0 0.0
2017-Aug-15 17:04N 45°09' E 036°35'0 0.2
2017-Aug-15 16:43N 45°09' E 036°35'0 0.0
2017-Aug-15 16:13N 45°09' E 036°35'0 0.0
2017-Aug-15 15:58N 45°09' E 036°35'1 0.0
2017-Aug-14 10:41N 45°08' E 036°33'5 0.5
2017-Aug-14 01:16N 45°11' E 036°28'3 8.5
2017-Aug-14 00:58N 45°14' E 036°28'4 7.5
2017-Aug-14 00:30N 45°17' E 036°29'4 7.5
2017-Aug-14 00:00N 45°19' E 036°33'4 8.2
2017-Aug-13 23:31N 45°21' E 036°38'4 7.5
2017-Aug-13 23:00N 45°24' E 036°40'4 7.6
2017-Aug-13 22:30N 45°28' E 036°39'0 0.4
2017-Aug-13 21:59N 45°28' E 036°39'0 0.0
2017-Aug-13 21:29N 45°28' E 036°39'0 0.0
2017-Aug-13 20:59N 45°28' E 036°39'0 0.0
2017-Aug-13 20:30N 45°28' E 036°39'0 0.1
2017-Aug-13 19:54N 45°28' E 036°39'0 0.1
2017-Aug-13 19:29N 45°28' E 036°39'0 0.0
2017-Aug-13 18:59N 45°28' E 036°39'0 0.0
2017-Aug-13 18:26N 45°28' E 036°39'0 0.3
2017-Aug-13 17:59N 45°28' E 036°39'4 7.0
2017-Aug-13 17:26N 45°30' E 036°43'  
Track history (hours):
 
Tides and Currents Weather Stations Pressure Air Temp Water Temp Dewpoint Dewpoint Depression Visibility Wind Speed Wind Dir Waves Ship Positions

Mekhanik Pogodin

Last reported at 2017-Aug-19 20:50 UTC. Time now 2017-Aug-22 16:54 UTC.
Position N 45°43' E 036°55'.

Length 141 m; draft 2.9 m.

Type: Ship (hazmat cat A). MMSI: 273354720.

Date/timePositionNaut miles runAvg speedWind from/ knotsBaromVisibWave heightAir tempDewpointWater temp
2017-Aug-19 20:50N 45°43' E 036°55'4 8.8
2017-Aug-19 20:25N 45°40' E 036°52'11 8.9
2017-Aug-19 19:12N 45°31' E 036°44'2 9.0
2017-Aug-19 19:00N 45°29' E 036°43'5 9.0
2017-Aug-19 18:30N 45°25' E 036°41'4 8.2
2017-Aug-19 18:00N 45°21' E 036°39'4 7.7
2017-Aug-19 17:30N 45°19' E 036°34'5 8.0
2017-Aug-19 16:55N 45°17' E 036°29'4 9.0
2017-Aug-19 16:30N 45°13' E 036°28'4 8.3
2017-Aug-19 15:57N 45°09' E 036°32'2 4.6
2017-Aug-19 15:29N 45°09' E 036°35'0 0.0
2017-Aug-19 14:55N 45°09' E 036°35'0 0.0
2017-Aug-19 13:55N 45°09' E 036°35'0 0.1
2017-Aug-19 13:28N 45°09' E 036°35'0 0.0
2017-Aug-19 12:55N 45°09' E 036°35'0 0.0
2017-Aug-19 12:28N 45°09' E 036°35'0 0.0
2017-Aug-19 11:58N 45°09' E 036°35'0 0.0
2017-Aug-18 15:52N 45°09' E 036°35'0 0.0
2017-Aug-18 15:25N 45°09' E 036°35'0 0.0
2017-Aug-18 14:58N 45°09' E 036°35'0 0.0
2017-Aug-18 13:58N 45°09' E 036°35'0 0.0
2017-Aug-18 13:25N 45°09' E 036°35'0 0.0
2017-Aug-17 22:25N 45°09' E 036°35'0 0.0
2017-Aug-17 21:25N 45°08' E 036°35'0 0.0
2017-Aug-17 19:01N 45°09' E 036°35'0 0.0
2017-Aug-17 16:25N 45°09' E 036°35'0 0.0
2017-Aug-17 15:58N 45°09' E 036°35'0 0.0
2017-Aug-17 15:22N 45°08' E 036°35'0 0.1
2017-Aug-17 14:55N 45°08' E 036°35'0 0.1
2017-Aug-17 14:28N 45°09' E 036°35'0 0.0
2017-Aug-17 12:46N 45°09' E 036°35'0 0.0
2017-Aug-17 12:25N 45°09' E 036°35'0 0.0
2017-Aug-17 05:49N 45°09' E 036°35'0 0.0
2017-Aug-17 01:46N 45°08' E 036°35'0 0.0
2017-Aug-16 21:25N 45°09' E 036°35'0 0.0
2017-Aug-16 19:34N 45°08' E 036°35'0 0.1
2017-Aug-16 19:28N 45°08' E 036°35'0 0.0
2017-Aug-16 18:58N 45°08' E 036°35'0 0.0
2017-Aug-16 18:13N 45°08' E 036°35'0 0.0
2017-Aug-16 17:58N 45°08' E 036°35'0 0.0
2017-Aug-16 17:28N 45°08' E 036°35'0 0.0
2017-Aug-16 16:46N 45°08' E 036°35'0 0.0
2017-Aug-16 16:25N 45°08' E 036°35'0 0.0
2017-Aug-16 15:55N 45°08' E 036°35'0 0.0
2017-Aug-16 15:28N 45°08' E 036°35'0 0.0
2017-Aug-16 14:58N 45°08' E 036°35'0 0.0
2017-Aug-16 14:16N 45°08' E 036°35'0 0.0
2017-Aug-16 13:46N 45°08' E 036°35'0 0.0
2017-Aug-16 13:19N 45°08' E 036°35'0 0.0
2017-Aug-16 12:25N 45°08' E 036°35'0 0.0
2017-Aug-16 11:58N 45°08' E 036°35'0 0.0
2017-Aug-16 11:28N 45°08' E 036°35'0 0.0
2017-Aug-16 10:58N 45°08' E 036°35'0 0.0
2017-Aug-15 21:58N 45°09' E 036°35'0 0.0
2017-Aug-15 17:04N 45°09' E 036°35'0 0.2
2017-Aug-15 16:43N 45°09' E 036°35'0 0.0
2017-Aug-15 16:13N 45°09' E 036°35'0 0.0
2017-Aug-15 15:58N 45°09' E 036°35'1 0.0
2017-Aug-14 10:41N 45°08' E 036°33'5 0.5
2017-Aug-14 01:16N 45°11' E 036°28'3 8.5
2017-Aug-14 00:58N 45°14' E 036°28'4 7.5
2017-Aug-14 00:30N 45°17' E 036°29'4 7.5
2017-Aug-14 00:00N 45°19' E 036°33'4 8.2
2017-Aug-13 23:31N 45°21' E 036°38'4 7.5
2017-Aug-13 23:00N 45°24' E 036°40'4 7.6
2017-Aug-13 22:30N 45°28' E 036°39'0 0.4
2017-Aug-13 21:59N 45°28' E 036°39'0 0.0
2017-Aug-13 21:29N 45°28' E 036°39'0 0.0
2017-Aug-13 20:59N 45°28' E 036°39'0 0.0
2017-Aug-13 20:30N 45°28' E 036°39'0 0.1
2017-Aug-13 19:54N 45°28' E 036°39'0 0.1
2017-Aug-13 19:29N 45°28' E 036°39'0 0.0
2017-Aug-13 18:59N 45°28' E 036°39'0 0.0
2017-Aug-13 18:26N 45°28' E 036°39'0 0.3
2017-Aug-13 17:59N 45°28' E 036°39'4 7.0
2017-Aug-13 17:26N 45°30' E 036°43'  

Dump ship's entire track history